Hlavní strana
METAR-TAF:

METAR-TAF

Letiště :

Stockholm, Švédsko

zeměpisná šířka: 59-21N, zeměpisná délka: 017-57E, výška: 14 m

Aktuální stav počasí

Zpráva byla vytvořena před 34 minutami, v 17:50 UTC
Severozápadní vítr 15 kt, proměnlivý mezi západoseverozápadním a severním
Teplota 1°C
Vlhkost vzduchu 40%
Tlak 1011 hPa
Viditelnost 10 km a více
Žádná oblačnost pod 1500 m, nevyskytují se cumulonimby.

METAR: ESSB 071750Z 32015KT 290V360 CAVOK 01/M11 Q1011 R30/19//82

Čas: 19:24 (18:24 UTC)

Předpověď počasí

Zpráva byla vytvořena před 22 minutami, v 18:02 UTC
Předpověď platná od 07 v 18 UTC do 07 v 22 UTC
Severozápadní vítr 14 kt
Viditelnost 10 km a více
Žádná oblačnost pod 1500 m, nevyskytují se cumulonimby.
Pravděpodobnost 40%
od 07 v 18 UTC do 07 v 22 UTC
Viditelnost: 4000 m
Oblačno až skoro zataženo ve výšce 3000 ft, Vertikální cumulus.
slabé sněhové přeháňky

TAF: ESSB 071802Z 0718/0722 32014KT CAVOK PROB40 0718/0722 4000 -SHSN BKN030TCU

Stav a předpovědi počasí z více než 4 000 letišť (zprávy METAR a TAF).

Červené a žluté tečky na mapě představují dostupné meteorologické stanice.

Když kurzor umístíte na tečku, zobrazí se název stanice.

Pak kliknutím zobrazíte stav a předpověď počasí.

Chcete-li změnit mapu, kliknutím na zelené tlačítko se znaménkem +mapu přiblížíte, kliknutím na zelené tlačítko se znaménkem – mapu oddálíte a kliknutím na zelené šipky přejdete na sousední mapy.


METAR-TAF: